sensor_id;sensor_type;location;lat;lon;timestamp;P1;durP1;ratioP1;P2;durP2;ratioP2
21386;SDS011;10854;45.922;6.716;2022-07-23T00:01:25;8.45;;;6.53;;
21386;SDS011;10854;45.922;6.716;2022-07-23T00:03:56;7.40;;;5.97;;
21386;SDS011;10854;45.922;6.716;2022-07-23T00:06:25;6.40;;;5.80;;
21386;SDS011;10854;45.922;6.716;2022-07-23T00:08:53;6.88;;;6.18;;
21386;SDS011;10854;45.922;6.716;2022-07-23T00:11:22;8.30;;;6.37;;
21386;SDS011;10854;45.922;6.716;2022-07-23T00:13:50;7.47;;;6.20;;
21386;SDS011;10854;45.922;6.716;2022-07-23T00:16:20;7.10;;;6.28;;
21386;SDS011;10854;45.922;6.716;2022-07-23T00:18:49;7.15;;;6.30;;
21386;SDS011;10854;45.922;6.716;2022-07-23T00:21:17;7.00;;;5.87;;
21386;SDS011;10854;45.922;6.716;2022-07-23T00:23:47;6.40;;;5.60;;
21386;SDS011;10854;45.922;6.716;2022-07-23T00:26:16;7.00;;;6.30;;
21386;SDS011;10854;45.922;6.716;2022-07-23T00:28:44;6.82;;;6.00;;
21386;SDS011;10854;45.922;6.716;2022-07-23T00:31:13;8.30;;;6.47;;
21386;SDS011;10854;45.922;6.716;2022-07-23T00:33:43;7.33;;;6.33;;
21386;SDS011;10854;45.922;6.716;2022-07-23T00:36:12;7.20;;;6.53;;
21386;SDS011;10854;45.922;6.716;2022-07-23T00:38:41;6.30;;;5.70;;
21386;SDS011;10854;45.922;6.716;2022-07-23T00:41:09;6.83;;;5.90;;
21386;SDS011;10854;45.922;6.716;2022-07-23T00:43:38;6.77;;;6.07;;
21386;SDS011;10854;45.922;6.716;2022-07-23T00:46:06;6.43;;;5.67;;
21386;SDS011;10854;45.922;6.716;2022-07-23T00:48:35;6.43;;;5.63;;
21386;SDS011;10854;45.922;6.716;2022-07-23T00:51:03;8.97;;;6.20;;
21386;SDS011;10854;45.922;6.716;2022-07-23T00:53:32;6.93;;;6.23;;
21386;SDS011;10854;45.922;6.716;2022-07-23T00:56:01;6.73;;;6.10;;
21386;SDS011;10854;45.922;6.716;2022-07-23T00:58:30;9.13;;;6.70;;
21386;SDS011;10854;45.922;6.716;2022-07-23T01:00:59;8.37;;;5.67;;
21386;SDS011;10854;45.922;6.716;2022-07-23T01:03:27;6.20;;;5.70;;
21386;SDS011;10854;45.922;6.716;2022-07-23T01:05:56;7.27;;;6.57;;
21386;SDS011;10854;45.922;6.716;2022-07-23T01:08:25;7.20;;;6.43;;
21386;SDS011;10854;45.922;6.716;2022-07-23T01:10:53;7.10;;;6.00;;
21386;SDS011;10854;45.922;6.716;2022-07-23T01:13:22;6.53;;;5.83;;
21386;SDS011;10854;45.922;6.716;2022-07-23T01:15:51;7.10;;;6.40;;
21386;SDS011;10854;45.922;6.716;2022-07-23T01:18:19;6.47;;;5.87;;
21386;SDS011;10854;45.922;6.716;2022-07-23T01:20:48;6.70;;;6.10;;
21386;SDS011;10854;45.922;6.716;2022-07-23T01:23:16;7.03;;;6.33;;
21386;SDS011;10854;45.922;6.716;2022-07-23T01:25:48;6.37;;;5.77;;
21386;SDS011;10854;45.922;6.716;2022-07-23T01:28:21;7.07;;;6.37;;
21386;SDS011;10854;45.922;6.716;2022-07-23T01:30:50;6.53;;;5.77;;
21386;SDS011;10854;45.922;6.716;2022-07-23T01:33:18;6.60;;;6.00;;
21386;SDS011;10854;45.922;6.716;2022-07-23T01:35:47;6.97;;;6.27;;
21386;SDS011;10854;45.922;6.716;2022-07-23T01:38:15;6.23;;;5.63;;
21386;SDS011;10854;45.922;6.716;2022-07-23T01:40:44;7.77;;;6.87;;
21386;SDS011;10854;45.922;6.716;2022-07-23T01:43:14;6.93;;;6.33;;
21386;SDS011;10854;45.922;6.716;2022-07-23T01:45:44;6.70;;;6.07;;
21386;SDS011;10854;45.922;6.716;2022-07-23T01:48:12;7.37;;;5.87;;
21386;SDS011;10854;45.922;6.716;2022-07-23T01:50:41;8.27;;;6.00;;
21386;SDS011;10854;45.922;6.716;2022-07-23T01:53:09;7.90;;;5.70;;
21386;SDS011;10854;45.922;6.716;2022-07-23T01:55:38;7.67;;;6.27;;
21386;SDS011;10854;45.922;6.716;2022-07-23T01:58:06;8.90;;;6.33;;
21386;SDS011;10854;45.922;6.716;2022-07-23T02:00:35;12.20;;;6.97;;
21386;SDS011;10854;45.922;6.716;2022-07-23T02:03:03;8.53;;;6.40;;
21386;SDS011;10854;45.922;6.716;2022-07-23T02:05:32;8.57;;;6.20;;
21386;SDS011;10854;45.922;6.716;2022-07-23T02:08:01;9.97;;;7.30;;
21386;SDS011;10854;45.922;6.716;2022-07-23T02:10:29;9.67;;;7.27;;
21386;SDS011;10854;45.922;6.716;2022-07-23T02:12:58;11.53;;;6.80;;
21386;SDS011;10854;45.922;6.716;2022-07-23T02:15:27;9.70;;;7.70;;
21386;SDS011;10854;45.922;6.716;2022-07-23T02:17:57;11.93;;;7.73;;
21386;SDS011;10854;45.922;6.716;2022-07-23T02:20:28;8.57;;;7.30;;
21386;SDS011;10854;45.922;6.716;2022-07-23T02:23:42;9.47;;;7.90;;
21386;SDS011;10854;45.922;6.716;2022-07-23T02:27:04;8.10;;;7.30;;
21386;SDS011;10854;45.922;6.716;2022-07-23T02:30:21;8.13;;;7.43;;
21386;SDS011;10854;45.922;6.716;2022-07-23T02:32:51;9.77;;;7.43;;
21386;SDS011;10854;45.922;6.716;2022-07-23T02:35:25;8.67;;;7.43;;
21386;SDS011;10854;45.922;6.716;2022-07-23T02:38:32;14.00;;;8.37;;
21386;SDS011;10854;45.922;6.716;2022-07-23T02:41:01;12.37;;;8.50;;
21386;SDS011;10854;45.922;6.716;2022-07-23T02:43:30;10.30;;;8.97;;
21386;SDS011;10854;45.922;6.716;2022-07-23T02:46:18;11.67;;;8.00;;
21386;SDS011;10854;45.922;6.716;2022-07-23T02:48:55;10.60;;;8.40;;
21386;SDS011;10854;45.922;6.716;2022-07-23T02:51:28;9.37;;;8.47;;
21386;SDS011;10854;45.922;6.716;2022-07-23T02:54:45;9.83;;;8.83;;
21386;SDS011;10854;45.922;6.716;2022-07-23T02:58:52;10.43;;;9.33;;
21386;SDS011;10854;45.922;6.716;2022-07-23T03:07:17;9.90;;;8.80;;
21386;SDS011;10854;45.922;6.716;2022-07-23T03:19:51;9.50;;;8.53;;
21386;SDS011;10854;45.922;6.716;2022-07-23T03:23:44;11.73;;;9.17;;
21386;SDS011;10854;45.922;6.716;2022-07-23T03:27:10;9.27;;;8.37;;
21386;SDS011;10854;45.922;6.716;2022-07-23T03:29:41;11.33;;;9.40;;
21386;SDS011;10854;45.922;6.716;2022-07-23T03:32:49;14.50;;;9.37;;
21386;SDS011;10854;45.922;6.716;2022-07-23T03:35:20;11.33;;;9.80;;
21386;SDS011;10854;45.922;6.716;2022-07-23T03:38:25;10.63;;;9.53;;
21386;SDS011;10854;45.922;6.716;2022-07-23T03:40:54;10.73;;;9.40;;
21386;SDS011;10854;45.922;6.716;2022-07-23T03:43:24;11.20;;;9.83;;
21386;SDS011;10854;45.922;6.716;2022-07-23T03:45:54;10.87;;;9.70;;
21386;SDS011;10854;45.922;6.716;2022-07-23T03:48:29;10.30;;;9.20;;
21386;SDS011;10854;45.922;6.716;2022-07-23T03:51:00;12.00;;;9.90;;
21386;SDS011;10854;45.922;6.716;2022-07-23T03:53:31;10.10;;;9.10;;
21386;SDS011;10854;45.922;6.716;2022-07-23T03:56:04;10.37;;;8.90;;
21386;SDS011;10854;45.922;6.716;2022-07-23T03:58:41;10.13;;;9.03;;
21386;SDS011;10854;45.922;6.716;2022-07-23T04:01:10;9.80;;;8.77;;
21386;SDS011;10854;45.922;6.716;2022-07-23T04:03:46;10.70;;;8.50;;
21386;SDS011;10854;45.922;6.716;2022-07-23T04:06:15;10.07;;;9.17;;
21386;SDS011;10854;45.922;6.716;2022-07-23T04:08:45;9.90;;;8.90;;
21386;SDS011;10854;45.922;6.716;2022-07-23T04:11:15;9.23;;;8.33;;
21386;SDS011;10854;45.922;6.716;2022-07-23T04:13:43;8.87;;;8.03;;
21386;SDS011;10854;45.922;6.716;2022-07-23T04:16:12;9.00;;;8.20;;
21386;SDS011;10854;45.922;6.716;2022-07-23T04:18:53;9.87;;;8.73;;
21386;SDS011;10854;45.922;6.716;2022-07-23T04:21:22;9.40;;;8.50;;
21386;SDS011;10854;45.922;6.716;2022-07-23T04:23:52;9.63;;;8.77;;
21386;SDS011;10854;45.922;6.716;2022-07-23T04:26:21;9.77;;;8.77;;
21386;SDS011;10854;45.922;6.716;2022-07-23T04:28:49;10.43;;;9.43;;
21386;SDS011;10854;45.922;6.716;2022-07-23T04:31:18;9.43;;;8.53;;
21386;SDS011;10854;45.922;6.716;2022-07-23T04:33:46;8.67;;;7.87;;
21386;SDS011;10854;45.922;6.716;2022-07-23T04:36:16;9.00;;;8.17;;
21386;SDS011;10854;45.922;6.716;2022-07-23T04:38:44;8.87;;;8.07;;
21386;SDS011;10854;45.922;6.716;2022-07-23T04:41:15;8.30;;;7.50;;
21386;SDS011;10854;45.922;6.716;2022-07-23T04:43:44;9.53;;;7.57;;
21386;SDS011;10854;45.922;6.716;2022-07-23T04:46:13;8.80;;;7.67;;
21386;SDS011;10854;45.922;6.716;2022-07-23T04:48:43;8.87;;;7.60;;
21386;SDS011;10854;45.922;6.716;2022-07-23T04:51:11;10.57;;;8.37;;
21386;SDS011;10854;45.922;6.716;2022-07-23T04:53:41;9.37;;;8.47;;
21386;SDS011;10854;45.922;6.716;2022-07-23T04:56:09;11.13;;;8.80;;
21386;SDS011;10854;45.922;6.716;2022-07-23T04:58:38;9.67;;;8.03;;
21386;SDS011;10854;45.922;6.716;2022-07-23T05:01:06;9.03;;;8.03;;
21386;SDS011;10854;45.922;6.716;2022-07-23T05:03:35;10.10;;;8.87;;
21386;SDS011;10854;45.922;6.716;2022-07-23T05:06:04;9.27;;;8.37;;
21386;SDS011;10854;45.922;6.716;2022-07-23T05:08:33;9.33;;;8.53;;
21386;SDS011;10854;45.922;6.716;2022-07-23T05:11:02;9.50;;;8.53;;
21386;SDS011;10854;45.922;6.716;2022-07-23T05:13:30;8.67;;;7.60;;
21386;SDS011;10854;45.922;6.716;2022-07-23T05:15:59;8.03;;;7.33;;
21386;SDS011;10854;45.922;6.716;2022-07-23T05:18:28;9.27;;;7.70;;
21386;SDS011;10854;45.922;6.716;2022-07-23T05:20:56;8.50;;;7.60;;
21386;SDS011;10854;45.922;6.716;2022-07-23T05:23:25;9.63;;;7.97;;
21386;SDS011;10854;45.922;6.716;2022-07-23T05:25:53;7.80;;;7.00;;
21386;SDS011;10854;45.922;6.716;2022-07-23T05:28:22;8.90;;;8.07;;
21386;SDS011;10854;45.922;6.716;2022-07-23T05:30:51;8.10;;;7.33;;
21386;SDS011;10854;45.922;6.716;2022-07-23T05:33:20;7.97;;;7.17;;
21386;SDS011;10854;45.922;6.716;2022-07-23T05:35:48;8.23;;;7.47;;
21386;SDS011;10854;45.922;6.716;2022-07-23T05:38:19;8.20;;;7.23;;
21386;SDS011;10854;45.922;6.716;2022-07-23T05:40:48;8.40;;;7.53;;
21386;SDS011;10854;45.922;6.716;2022-07-23T05:43:16;8.10;;;7.30;;
21386;SDS011;10854;45.922;6.716;2022-07-23T05:45:45;8.70;;;7.80;;
21386;SDS011;10854;45.922;6.716;2022-07-23T05:48:14;8.30;;;7.50;;
21386;SDS011;10854;45.922;6.716;2022-07-23T05:50:42;8.10;;;7.37;;
21386;SDS011;10854;45.922;6.716;2022-07-23T05:53:12;8.90;;;8.00;;
21386;SDS011;10854;45.922;6.716;2022-07-23T05:55:43;17.47;;;8.87;;
21386;SDS011;10854;45.922;6.716;2022-07-23T05:58:11;10.27;;;8.03;;
21386;SDS011;10854;45.922;6.716;2022-07-23T06:00:40;14.33;;;8.17;;
21386;SDS011;10854;45.922;6.716;2022-07-23T06:03:08;9.23;;;7.97;;
21386;SDS011;10854;45.922;6.716;2022-07-23T06:05:37;8.87;;;7.90;;
21386;SDS011;10854;45.922;6.716;2022-07-23T06:08:06;9.40;;;8.20;;
21386;SDS011;10854;45.922;6.716;2022-07-23T06:10:34;8.07;;;7.20;;
21386;SDS011;10854;45.922;6.716;2022-07-23T06:13:03;8.53;;;7.73;;
21386;SDS011;10854;45.922;6.716;2022-07-23T06:15:32;9.17;;;8.27;;
21386;SDS011;10854;45.922;6.716;2022-07-23T06:18:00;9.43;;;8.13;;
21386;SDS011;10854;45.922;6.716;2022-07-23T06:20:29;10.80;;;7.93;;
21386;SDS011;10854;45.922;6.716;2022-07-23T06:22:58;8.83;;;7.93;;
21386;SDS011;10854;45.922;6.716;2022-07-23T06:25:28;9.43;;;8.53;;
21386;SDS011;10854;45.922;6.716;2022-07-23T06:27:57;10.20;;;9.17;;
21386;SDS011;10854;45.922;6.716;2022-07-23T06:30:25;10.50;;;9.63;;
21386;SDS011;10854;45.922;6.716;2022-07-23T06:32:54;10.37;;;9.30;;
21386;SDS011;10854;45.922;6.716;2022-07-23T06:35:23;10.57;;;9.57;;
21386;SDS011;10854;45.922;6.716;2022-07-23T06:37:52;10.33;;;8.83;;
21386;SDS011;10854;45.922;6.716;2022-07-23T06:40:21;11.17;;;9.07;;
21386;SDS011;10854;45.922;6.716;2022-07-23T06:42:49;9.70;;;8.70;;
21386;SDS011;10854;45.922;6.716;2022-07-23T06:45:18;9.93;;;8.90;;
21386;SDS011;10854;45.922;6.716;2022-07-23T06:47:53;9.52;;;8.60;;
21386;SDS011;10854;45.922;6.716;2022-07-23T06:50:21;10.32;;;9.30;;
21386;SDS011;10854;45.922;6.716;2022-07-23T06:52:51;9.25;;;8.45;;
21386;SDS011;10854;45.922;6.716;2022-07-23T06:55:19;8.77;;;7.93;;
21386;SDS011;10854;45.922;6.716;2022-07-23T06:57:51;9.25;;;8.45;;
21386;SDS011;10854;45.922;6.716;2022-07-23T07:00:20;9.70;;;7.65;;
21386;SDS011;10854;45.922;6.716;2022-07-23T07:02:48;8.10;;;7.40;;
21386;SDS011;10854;45.922;6.716;2022-07-23T07:05:19;9.65;;;8.13;;
21386;SDS011;10854;45.922;6.716;2022-07-23T07:07:48;8.32;;;7.57;;
21386;SDS011;10854;45.922;6.716;2022-07-23T07:10:16;9.10;;;8.30;;
21386;SDS011;10854;45.922;6.716;2022-07-23T07:12:45;9.48;;;8.65;;
21386;SDS011;10854;45.922;6.716;2022-07-23T07:15:14;9.25;;;8.35;;
21386;SDS011;10854;45.922;6.716;2022-07-23T07:17:42;9.07;;;8.27;;
21386;SDS011;10854;45.922;6.716;2022-07-23T07:20:11;8.90;;;8.10;;
21386;SDS011;10854;45.922;6.716;2022-07-23T07:22:39;8.52;;;7.60;;
21386;SDS011;10854;45.922;6.716;2022-07-23T07:25:08;8.65;;;7.90;;
21386;SDS011;10854;45.922;6.716;2022-07-23T07:27:37;8.48;;;7.68;;
21386;SDS011;10854;45.922;6.716;2022-07-23T07:30:05;8.18;;;7.40;;
21386;SDS011;10854;45.922;6.716;2022-07-23T07:32:34;8.07;;;7.28;;
21386;SDS011;10854;45.922;6.716;2022-07-23T07:35:24;8.30;;;7.50;;
21386;SDS011;10854;45.922;6.716;2022-07-23T07:37:53;8.43;;;7.50;;
21386;SDS011;10854;45.922;6.716;2022-07-23T07:40:21;8.50;;;7.70;;
21386;SDS011;10854;45.922;6.716;2022-07-23T07:42:54;8.00;;;7.30;;
21386;SDS011;10854;45.922;6.716;2022-07-23T07:45:24;7.85;;;7.15;;
21386;SDS011;10854;45.922;6.716;2022-07-23T07:47:53;7.90;;;6.90;;
21386;SDS011;10854;45.922;6.716;2022-07-23T07:50:21;7.85;;;7.25;;
21386;SDS011;10854;45.922;6.716;2022-07-23T07:52:50;8.07;;;7.45;;
21386;SDS011;10854;45.922;6.716;2022-07-23T07:55:18;7.95;;;7.15;;
21386;SDS011;10854;45.922;6.716;2022-07-23T07:57:47;7.75;;;7.10;;
21386;SDS011;10854;45.922;6.716;2022-07-23T08:00:16;7.85;;;7.13;;
21386;SDS011;10854;45.922;6.716;2022-07-23T08:02:51;8.43;;;7.72;;
21386;SDS011;10854;45.922;6.716;2022-07-23T08:05:22;10.57;;;8.27;;
21386;SDS011;10854;45.922;6.716;2022-07-23T08:07:53;8.13;;;7.43;;
21386;SDS011;10854;45.922;6.716;2022-07-23T08:10:26;9.15;;;8.35;;
21386;SDS011;10854;45.922;6.716;2022-07-23T08:12:55;9.30;;;8.07;;
21386;SDS011;10854;45.922;6.716;2022-07-23T08:15:26;8.60;;;7.80;;
21386;SDS011;10854;45.922;6.716;2022-07-23T08:17:56;8.90;;;8.10;;
21386;SDS011;10854;45.922;6.716;2022-07-23T08:20:26;8.73;;;7.90;;
21386;SDS011;10854;45.922;6.716;2022-07-23T08:22:56;10.70;;;8.23;;
21386;SDS011;10854;45.922;6.716;2022-07-23T08:25:29;9.13;;;7.78;;
21386;SDS011;10854;45.922;6.716;2022-07-23T08:28:00;8.30;;;7.28;;
21386;SDS011;10854;45.922;6.716;2022-07-23T08:30:31;8.85;;;8.05;;
21386;SDS011;10854;45.922;6.716;2022-07-23T08:33:01;9.30;;;7.90;;
21386;SDS011;10854;45.922;6.716;2022-07-23T08:35:34;7.97;;;7.18;;
21386;SDS011;10854;45.922;6.716;2022-07-23T08:38:06;8.25;;;7.45;;
21386;SDS011;10854;45.922;6.716;2022-07-23T08:40:37;8.52;;;7.72;;
21386;SDS011;10854;45.922;6.716;2022-07-23T08:43:12;8.02;;;7.43;;
21386;SDS011;10854;45.922;6.716;2022-07-23T08:45:44;8.40;;;7.50;;
21386;SDS011;10854;45.922;6.716;2022-07-23T08:48:16;9.02;;;8.13;;
21386;SDS011;10854;45.922;6.716;2022-07-23T08:50:47;8.30;;;7.60;;
21386;SDS011;10854;45.922;6.716;2022-07-23T08:53:17;8.65;;;7.50;;
21386;SDS011;10854;45.922;6.716;2022-07-23T08:55:47;8.15;;;7.45;;
21386;SDS011;10854;45.922;6.716;2022-07-23T08:58:17;8.32;;;7.38;;
21386;SDS011;10854;45.922;6.716;2022-07-23T09:00:48;8.15;;;7.35;;
21386;SDS011;10854;45.922;6.716;2022-07-23T09:03:18;7.85;;;7.15;;
21386;SDS011;10854;45.922;6.716;2022-07-23T09:05:51;7.90;;;7.13;;
21386;SDS011;10854;45.922;6.716;2022-07-23T09:08:21;7.55;;;6.85;;
21386;SDS011;10854;45.922;6.716;2022-07-23T09:11:02;8.35;;;7.47;;
21386;SDS011;10854;45.922;6.716;2022-07-23T09:13:46;8.20;;;7.40;;
21386;SDS011;10854;45.922;6.716;2022-07-23T09:16:24;8.30;;;7.50;;
21386;SDS011;10854;45.922;6.716;2022-07-23T09:19:01;9.50;;;8.52;;
21386;SDS011;10854;45.922;6.716;2022-07-23T09:21:35;8.88;;;8.02;;
21386;SDS011;10854;45.922;6.716;2022-07-23T09:24:12;9.38;;;7.47;;
21386;SDS011;10854;45.922;6.716;2022-07-23T09:26:45;9.35;;;8.25;;
21386;SDS011;10854;45.922;6.716;2022-07-23T09:29:16;8.93;;;8.05;;
21386;SDS011;10854;45.922;6.716;2022-07-23T09:32:02;9.57;;;7.40;;
21386;SDS011;10854;45.922;6.716;2022-07-23T09:34:36;8.77;;;7.90;;
21386;SDS011;10854;45.922;6.716;2022-07-23T09:37:14;8.52;;;7.72;;
21386;SDS011;10854;45.922;6.716;2022-07-23T09:39:47;8.40;;;7.60;;
21386;SDS011;10854;45.922;6.716;2022-07-23T09:42:23;10.30;;;8.30;;
21386;SDS011;10854;45.922;6.716;2022-07-23T09:44:54;8.55;;;7.65;;
21386;SDS011;10854;45.922;6.716;2022-07-23T09:47:26;8.70;;;7.85;;
21386;SDS011;10854;45.922;6.716;2022-07-23T09:50:00;11.48;;;7.68;;
21386;SDS011;10854;45.922;6.716;2022-07-23T09:52:42;8.07;;;7.40;;
21386;SDS011;10854;45.922;6.716;2022-07-23T09:55:13;8.80;;;8.00;;
21386;SDS011;10854;45.922;6.716;2022-07-23T09:57:43;11.50;;;7.55;;
21386;SDS011;10854;45.922;6.716;2022-07-23T10:00:21;8.23;;;7.30;;
21386;SDS011;10854;45.922;6.716;2022-07-23T10:02:51;7.82;;;7.10;;
21386;SDS011;10854;45.922;6.716;2022-07-23T10:05:20;8.52;;;7.72;;
21386;SDS011;10854;45.922;6.716;2022-07-23T10:07:49;9.23;;;7.63;;
21386;SDS011;10854;45.922;6.716;2022-07-23T10:10:19;8.23;;;7.53;;
21386;SDS011;10854;45.922;6.716;2022-07-23T10:12:50;8.63;;;7.72;;
21386;SDS011;10854;45.922;6.716;2022-07-23T10:15:19;9.23;;;7.53;;
21386;SDS011;10854;45.922;6.716;2022-07-23T10:17:48;8.43;;;7.60;;
21386;SDS011;10854;45.922;6.716;2022-07-23T10:20:17;11.00;;;6.97;;
21386;SDS011;10854;45.922;6.716;2022-07-23T10:22:48;7.65;;;6.93;;
21386;SDS011;10854;45.922;6.716;2022-07-23T10:25:37;7.38;;;6.78;;
21386;SDS011;10854;45.922;6.716;2022-07-23T10:31:47;8.20;;;7.45;;
21386;SDS011;10854;45.922;6.716;2022-07-23T10:34:36;9.48;;;8.18;;
21386;SDS011;10854;45.922;6.716;2022-07-23T10:37:17;8.20;;;7.38;;
21386;SDS011;10854;45.922;6.716;2022-07-23T10:42:40;9.10;;;7.00;;
21386;SDS011;10854;45.922;6.716;2022-07-23T10:45:22;8.25;;;7.35;;
21386;SDS011;10854;45.922;6.716;2022-07-23T10:47:55;7.72;;;7.03;;
21386;SDS011;10854;45.922;6.716;2022-07-23T10:53:53;7.55;;;6.82;;
21386;SDS011;10854;45.922;6.716;2022-07-23T10:59:25;9.00;;;8.10;;
21386;SDS011;10854;45.922;6.716;2022-07-23T11:01:54;8.15;;;7.35;;
21386;SDS011;10854;45.922;6.716;2022-07-23T11:04:53;8.63;;;7.55;;
21386;SDS011;10854;45.922;6.716;2022-07-23T11:07:26;8.00;;;7.20;;
21386;SDS011;10854;45.922;6.716;2022-07-23T11:09:55;8.43;;;7.65;;
21386;SDS011;10854;45.922;6.716;2022-07-23T11:15:05;7.97;;;7.18;;
21386;SDS011;10854;45.922;6.716;2022-07-23T11:20:13;8.48;;;7.53;;
21386;SDS011;10854;45.922;6.716;2022-07-23T11:22:51;8.00;;;6.72;;
21386;SDS011;10854;45.922;6.716;2022-07-23T11:28:17;8.82;;;6.53;;
21386;SDS011;10854;45.922;6.716;2022-07-23T11:30:48;8.52;;;7.63;;
21386;SDS011;10854;45.922;6.716;2022-07-23T11:33:18;8.80;;;8.00;;
21386;SDS011;10854;45.922;6.716;2022-07-23T11:35:49;7.63;;;6.80;;
21386;SDS011;10854;45.922;6.716;2022-07-23T11:38:33;8.88;;;6.93;;
21386;SDS011;10854;45.922;6.716;2022-07-23T11:41:03;7.85;;;6.88;;
21386;SDS011;10854;45.922;6.716;2022-07-23T11:43:31;7.88;;;7.00;;
21386;SDS011;10854;45.922;6.716;2022-07-23T11:46:04;7.90;;;7.10;;
21386;SDS011;10854;45.922;6.716;2022-07-23T11:48:32;8.23;;;7.40;;
21386;SDS011;10854;45.922;6.716;2022-07-23T11:51:05;8.05;;;7.18;;
21386;SDS011;10854;45.922;6.716;2022-07-23T11:53:33;8.90;;;7.38;;
21386;SDS011;10854;45.922;6.716;2022-07-23T11:56:03;7.40;;;6.75;;
21386;SDS011;10854;45.922;6.716;2022-07-23T11:58:36;8.73;;;7.45;;
21386;SDS011;10854;45.922;6.716;2022-07-23T12:01:06;8.20;;;7.40;;
21386;SDS011;10854;45.922;6.716;2022-07-23T12:03:34;8.25;;;7.45;;
21386;SDS011;10854;45.922;6.716;2022-07-23T12:06:03;8.85;;;6.78;;
21386;SDS011;10854;45.922;6.716;2022-07-23T12:08:32;8.07;;;6.90;;
21386;SDS011;10854;45.922;6.716;2022-07-23T12:11:00;7.70;;;6.95;;
21386;SDS011;10854;45.922;6.716;2022-07-23T12:13:29;7.95;;;6.75;;
21386;SDS011;10854;45.922;6.716;2022-07-23T12:15:57;7.43;;;6.40;;
21386;SDS011;10854;45.922;6.716;2022-07-23T12:18:26;8.27;;;7.18;;
21386;SDS011;10854;45.922;6.716;2022-07-23T12:20:56;7.32;;;6.57;;
21386;SDS011;10854;45.922;6.716;2022-07-23T12:23:31;7.75;;;6.50;;
21386;SDS011;10854;45.922;6.716;2022-07-23T12:26:00;7.63;;;6.35;;
21386;SDS011;10854;45.922;6.716;2022-07-23T12:28:31;10.88;;;6.60;;
21386;SDS011;10854;45.922;6.716;2022-07-23T12:31:01;7.07;;;6.47;;
21386;SDS011;10854;45.922;6.716;2022-07-23T12:33:33;6.93;;;6.22;;
21386;SDS011;10854;45.922;6.716;2022-07-23T12:36:04;7.78;;;6.82;;
21386;SDS011;10854;45.922;6.716;2022-07-23T12:38:37;8.27;;;6.28;;
21386;SDS011;10854;45.922;6.716;2022-07-23T12:41:07;9.52;;;6.68;;
21386;SDS011;10854;45.922;6.716;2022-07-23T12:43:37;7.35;;;6.45;;
21386;SDS011;10854;45.922;6.716;2022-07-23T12:46:09;7.85;;;6.32;;
21386;SDS011;10854;45.922;6.716;2022-07-23T12:51:26;6.80;;;5.97;;
21386;SDS011;10854;45.922;6.716;2022-07-23T12:53:59;6.60;;;6.00;;
21386;SDS011;10854;45.922;6.716;2022-07-23T12:56:37;7.38;;;6.00;;
21386;SDS011;10854;45.922;6.716;2022-07-23T12:59:08;6.68;;;6.07;;
21386;SDS011;10854;45.922;6.716;2022-07-23T13:01:43;7.00;;;6.32;;
21386;SDS011;10854;45.922;6.716;2022-07-23T13:04:23;7.78;;;7.07;;
21386;SDS011;10854;45.922;6.716;2022-07-23T13:06:55;7.13;;;6.43;;
21386;SDS011;10854;45.922;6.716;2022-07-23T13:09:27;8.48;;;6.60;;
21386;SDS011;10854;45.922;6.716;2022-07-23T13:11:57;7.15;;;6.45;;
21386;SDS011;10854;45.922;6.716;2022-07-23T13:14:27;7.25;;;6.65;;
21386;SDS011;10854;45.922;6.716;2022-07-23T13:16:56;8.07;;;7.28;;
21386;SDS011;10854;45.922;6.716;2022-07-23T13:19:24;9.98;;;6.85;;
21386;SDS011;10854;45.922;6.716;2022-07-23T13:21:54;8.25;;;6.88;;
21386;SDS011;10854;45.922;6.716;2022-07-23T13:24:22;7.00;;;6.30;;
21386;SDS011;10854;45.922;6.716;2022-07-23T13:26:51;8.60;;;6.75;;
21386;SDS011;10854;45.922;6.716;2022-07-23T13:29:19;6.95;;;6.25;;
21386;SDS011;10854;45.922;6.716;2022-07-23T13:31:48;7.53;;;6.68;;
21386;SDS011;10854;45.922;6.716;2022-07-23T13:34:17;7.75;;;7.00;;
21386;SDS011;10854;45.922;6.716;2022-07-23T13:36:45;7.50;;;6.57;;
21386;SDS011;10854;45.922;6.716;2022-07-23T13:39:15;7.68;;;6.85;;
21386;SDS011;10854;45.922;6.716;2022-07-23T13:41:44;7.28;;;6.57;;
21386;SDS011;10854;45.922;6.716;2022-07-23T13:44:13;7.15;;;6.55;;
21386;SDS011;10854;45.922;6.716;2022-07-23T13:46:42;8.02;;;7.22;;
21386;SDS011;10854;45.922;6.716;2022-07-23T13:49:10;8.90;;;6.70;;
21386;SDS011;10854;45.922;6.716;2022-07-23T13:51:39;8.32;;;7.25;;
21386;SDS011;10854;45.922;6.716;2022-07-23T13:54:07;8.07;;;7.38;;
21386;SDS011;10854;45.922;6.716;2022-07-23T13:56:36;7.85;;;7.00;;
21386;SDS011;10854;45.922;6.716;2022-07-23T13:59:04;7.25;;;6.53;;
21386;SDS011;10854;45.922;6.716;2022-07-23T14:01:33;8.25;;;7.45;;
21386;SDS011;10854;45.922;6.716;2022-07-23T14:04:05;7.90;;;7.20;;
21386;SDS011;10854;45.922;6.716;2022-07-23T14:06:33;8.82;;;7.40;;
21386;SDS011;10854;45.922;6.716;2022-07-23T14:09:02;9.52;;;7.65;;
21386;SDS011;10854;45.922;6.716;2022-07-23T14:11:31;7.97;;;7.28;;
21386;SDS011;10854;45.922;6.716;2022-07-23T14:14:00;8.73;;;6.90;;
21386;SDS011;10854;45.922;6.716;2022-07-23T14:16:29;10.02;;;7.45;;
21386;SDS011;10854;45.922;6.716;2022-07-23T14:18:58;8.73;;;7.78;;
21386;SDS011;10854;45.922;6.716;2022-07-23T14:21:27;15.13;;;7.97;;
21386;SDS011;10854;45.922;6.716;2022-07-23T14:23:56;8.35;;;7.47;;
21386;SDS011;10854;45.922;6.716;2022-07-23T14:26:24;8.52;;;7.72;;
21386;SDS011;10854;45.922;6.716;2022-07-23T14:28:52;8.45;;;7.63;;
21386;SDS011;10854;45.922;6.716;2022-07-23T14:31:22;8.75;;;7.30;;
21386;SDS011;10854;45.922;6.716;2022-07-23T14:33:50;8.98;;;7.72;;
21386;SDS011;10854;45.922;6.716;2022-07-23T14:36:19;9.02;;;7.82;;
21386;SDS011;10854;45.922;6.716;2022-07-23T14:38:47;8.23;;;7.53;;
21386;SDS011;10854;45.922;6.716;2022-07-23T14:41:16;8.45;;;7.65;;
21386;SDS011;10854;45.922;6.716;2022-07-23T14:43:46;8.30;;;7.30;;
21386;SDS011;10854;45.922;6.716;2022-07-23T14:46:14;9.48;;;7.72;;
21386;SDS011;10854;45.922;6.716;2022-07-23T14:48:43;7.95;;;7.35;;
21386;SDS011;10854;45.922;6.716;2022-07-23T14:51:12;10.45;;;7.60;;
21386;SDS011;10854;45.922;6.716;2022-07-23T14:53:40;7.97;;;7.18;;
21386;SDS011;10854;45.922;6.716;2022-07-23T14:56:09;7.88;;;7.22;;
21386;SDS011;10854;45.922;6.716;2022-07-23T14:58:37;9.10;;;7.45;;
21386;SDS011;10854;45.922;6.716;2022-07-23T15:01:06;9.05;;;7.15;;
21386;SDS011;10854;45.922;6.716;2022-07-23T15:03:35;7.82;;;7.20;;
21386;SDS011;10854;45.922;6.716;2022-07-23T15:06:03;8.23;;;7.53;;
21386;SDS011;10854;45.922;6.716;2022-07-23T15:08:32;8.43;;;7.63;;
21386;SDS011;10854;45.922;6.716;2022-07-23T15:11:01;7.95;;;7.22;;
21386;SDS011;10854;45.922;6.716;2022-07-23T15:13:29;8.13;;;7.30;;
21386;SDS011;10854;45.922;6.716;2022-07-23T15:15:58;8.60;;;7.80;;
21386;SDS011;10854;45.922;6.716;2022-07-23T15:18:27;8.15;;;7.45;;
21386;SDS011;10854;45.922;6.716;2022-07-23T15:20:55;8.32;;;7.53;;
21386;SDS011;10854;45.922;6.716;2022-07-23T15:23:25;8.63;;;7.85;;
21386;SDS011;10854;45.922;6.716;2022-07-23T15:25:55;10.20;;;7.55;;
21386;SDS011;10854;45.922;6.716;2022-07-23T15:28:24;8.40;;;7.60;;
21386;SDS011;10854;45.922;6.716;2022-07-23T15:30:52;8.45;;;7.60;;
21386;SDS011;10854;45.922;6.716;2022-07-23T15:33:22;8.10;;;7.40;;
21386;SDS011;10854;45.922;6.716;2022-07-23T15:35:50;8.68;;;7.70;;
21386;SDS011;10854;45.922;6.716;2022-07-23T15:38:21;8.27;;;7.47;;
21386;SDS011;10854;45.922;6.716;2022-07-23T15:40:49;8.45;;;7.63;;
21386;SDS011;10854;45.922;6.716;2022-07-23T15:43:18;7.75;;;7.05;;
21386;SDS011;10854;45.922;6.716;2022-07-23T15:45:47;8.60;;;7.70;;
21386;SDS011;10854;45.922;6.716;2022-07-23T15:48:16;8.13;;;7.38;;
21386;SDS011;10854;45.922;6.716;2022-07-23T15:50:49;8.30;;;7.30;;
21386;SDS011;10854;45.922;6.716;2022-07-23T15:53:18;9.10;;;7.80;;